Toguchin, Russia
Current Conditions -  °F | °C
As of 11:30 PM on Thursday 30 Oct 2014 (Local Time) from UNNT Reporting Station
Overcast Overcast  
Wind Chill: 19°   Ceiling: 2500
Heat Index: 30°   Visibility: 6mi
Dew Point: 23°   Wind: 16mph
Humidity: 75%   Direction: 260°W
Pressure: 30.15"   Gusts: NA
Location:  55.24°N, 84.39°E
Report Text: UNNT 301630Z 26007MPS 9999 OVC025CB M01/M05 Q1021 2582015516490150 NOSIG RMK QFE756/1008
Loading
Personal Weather Stations






























Interactive Weather Map
Tropical Storm Tracking
New forecast layout! Learn more

10-Day Weather Forecast

Advertisements
Track Severe Weather on mobile